Terminal Aerodrome Forecast
Issued by NWS Charleston, WV

Current Version | Previous Version | Graphics & Text | Print | Product List | Glossary On
Versions: 1 2 3 4 5 6 7 8 9 10 11 12 13 14 15 16 17 18 19 20 21 22 23 24 25 26 27
000
FTUS41 KRLX 200200 AAA
TAFHTS
TAF AMD
KHTS 200228Z 2002/2024 VRB03KT 6SM HZ SCT120
     FM200500 00000KT 4SM BR SCT035 BKN080
     FM200700 00000KT 3SM -SHRA BR VCTS BKN035CB
     FM201400 21004KT 4SM BR BKN025
     FM201600 21005KT 6SM HZ BKN030
     FM201900 24007KT 6SM HZ BKN035=

USA.gov is the U.S. government's official web portal to all federal, state and local government web resources and services.